sensor_id;sensor_type;location;lat;lon;timestamp;pressure;altitude;pressure_sealevel;temperature;humidity
60719;BME280;46567;51.660;5.824;2023-08-30T00:02:18;129620.0;;;190.6;90.0
60719;BME280;46567;51.660;5.824;2023-08-30T00:07:18;129630.0;;;190.6;90.0
60719;BME280;46567;51.660;5.824;2023-08-30T00:12:18;129630.0;;;190.6;90.0
60719;BME280;46567;51.660;5.824;2023-08-30T00:17:18;129640.0;;;190.6;90.0
60719;BME280;46567;51.660;5.824;2023-08-30T00:22:21;129640.0;;;190.6;90.0
60719;BME280;46567;51.660;5.824;2023-08-30T00:27:18;129650.0;;;190.6;90.0
60719;BME280;46567;51.660;5.824;2023-08-30T00:32:18;129670.0;;;190.6;90.0
60719;BME280;46567;51.660;5.824;2023-08-30T00:37:18;129660.0;;;190.6;90.0
60719;BME280;46567;51.660;5.824;2023-08-30T00:42:18;129680.0;;;190.6;90.0
60719;BME280;46567;51.660;5.824;2023-08-30T00:47:18;129680.0;;;190.6;90.0
60719;BME280;46567;51.660;5.824;2023-08-30T00:52:18;129700.0;;;190.6;90.0
60719;BME280;46567;51.660;5.824;2023-08-30T00:57:18;129700.0;;;190.6;90.0
60719;BME280;46567;51.660;5.824;2023-08-30T01:02:18;129710.0;;;190.6;90.0
60719;BME280;46567;51.660;5.824;2023-08-30T01:07:18;129720.0;;;190.6;90.5
60719;BME280;46567;51.660;5.824;2023-08-30T01:12:48;129730.0;;;190.6;90.5
60719;BME280;46567;51.660;5.824;2023-08-30T01:17:19;129740.0;;;190.6;90.5
60719;BME280;46567;51.660;5.824;2023-08-30T01:23:15;129740.0;;;190.6;91.0
60719;BME280;46567;51.660;5.824;2023-08-30T01:28:01;129750.0;;;190.6;91.0
60719;BME280;46567;51.660;5.824;2023-08-30T01:32:18;129750.0;;;190.6;91.5
60719;BME280;46567;51.660;5.824;2023-08-30T01:37:18;129760.0;;;190.6;91.5
60719;BME280;46567;51.660;5.824;2023-08-30T01:42:18;129780.0;;;190.6;91.5
60719;BME280;46567;51.660;5.824;2023-08-30T01:47:18;129800.0;;;190.6;91.5
60719;BME280;46567;51.660;5.824;2023-08-30T01:52:19;129800.0;;;190.6;91.5
60719;BME280;46567;51.660;5.824;2023-08-30T01:57:19;129820.0;;;190.6;91.5
60719;BME280;46567;51.660;5.824;2023-08-30T02:02:18;129840.0;;;190.6;92.0
60719;BME280;46567;51.660;5.824;2023-08-30T02:07:35;129860.0;;;190.6;92.0
60719;BME280;46567;51.660;5.824;2023-08-30T02:12:24;129880.0;;;190.6;92.5
60719;BME280;46567;51.660;5.824;2023-08-30T02:17:18;129890.0;;;190.6;92.5
60719;BME280;46567;51.660;5.824;2023-08-30T02:22:18;129880.0;;;190.6;92.5
60719;BME280;46567;51.660;5.824;2023-08-30T02:27:18;129900.0;;;190.6;92.5
60719;BME280;46567;51.660;5.824;2023-08-30T02:32:18;129900.0;;;190.6;93.0
60719;BME280;46567;51.660;5.824;2023-08-30T02:37:19;129910.0;;;190.6;93.0
60719;BME280;46567;51.660;5.824;2023-08-30T02:42:18;129900.0;;;190.6;93.0
60719;BME280;46567;51.660;5.824;2023-08-30T02:47:18;129900.0;;;190.6;93.0
60719;BME280;46567;51.660;5.824;2023-08-30T02:52:18;129910.0;;;190.6;93.5
60719;BME280;46567;51.660;5.824;2023-08-30T02:57:18;129920.0;;;190.6;93.5
60719;BME280;46567;51.660;5.824;2023-08-30T03:02:18;129920.0;;;190.6;93.5
60719;BME280;46567;51.660;5.824;2023-08-30T03:07:18;129920.0;;;190.6;93.5
60719;BME280;46567;51.660;5.824;2023-08-30T03:12:18;129940.0;;;190.6;93.5
60719;BME280;46567;51.660;5.824;2023-08-30T03:17:18;129930.0;;;190.6;94.0
60719;BME280;46567;51.660;5.824;2023-08-30T03:22:18;129930.0;;;190.6;94.5
60719;BME280;46567;51.660;5.824;2023-08-30T03:27:18;129920.0;;;190.6;94.5
60719;BME280;46567;51.660;5.824;2023-08-30T03:32:20;129900.0;;;190.6;95.0
60719;BME280;46567;51.660;5.824;2023-08-30T03:37:18;129870.0;;;190.6;95.5
60719;BME280;46567;51.660;5.824;2023-08-30T03:42:18;129860.0;;;190.6;95.5
60719;BME280;46567;51.660;5.824;2023-08-30T03:47:18;129840.0;;;190.6;96.0
60719;BME280;46567;51.660;5.824;2023-08-30T03:52:18;129820.0;;;190.6;96.5
60719;BME280;46567;51.660;5.824;2023-08-30T03:57:18;129800.0;;;190.6;96.5
60719;BME280;46567;51.660;5.824;2023-08-30T04:02:18;129800.0;;;190.6;96.5
60719;BME280;46567;51.660;5.824;2023-08-30T04:07:18;129770.0;;;190.6;96.5
60719;BME280;46567;51.660;5.824;2023-08-30T04:12:18;129770.0;;;190.6;96.5
60719;BME280;46567;51.660;5.824;2023-08-30T04:17:18;129750.0;;;190.6;96.5
60719;BME280;46567;51.660;5.824;2023-08-30T04:22:18;129740.0;;;190.6;96.5
60719;BME280;46567;51.660;5.824;2023-08-30T04:27:18;129730.0;;;190.6;96.5
60719;BME280;46567;51.660;5.824;2023-08-30T04:32:18;129730.0;;;190.6;96.5
60719;BME280;46567;51.660;5.824;2023-08-30T04:37:18;129750.0;;;190.6;97.0
60719;BME280;46567;51.660;5.824;2023-08-30T04:42:18;129750.0;;;190.6;97.0
60719;BME280;46567;51.660;5.824;2023-08-30T04:47:18;129740.0;;;190.6;97.5
60719;BME280;46567;51.660;5.824;2023-08-30T04:52:19;129740.0;;;190.6;98.0
60719;BME280;46567;51.660;5.824;2023-08-30T04:57:18;129710.0;;;190.6;98.5
60719;BME280;46567;51.660;5.824;2023-08-30T05:02:18;129710.0;;;190.6;98.5
60719;BME280;46567;51.660;5.824;2023-08-30T05:07:18;129710.0;;;190.6;99.0
60719;BME280;46567;51.660;5.824;2023-08-30T05:12:18;129700.0;;;190.6;99.0
60719;BME280;46567;51.660;5.824;2023-08-30T05:17:18;129680.0;;;190.6;99.5
60719;BME280;46567;51.660;5.824;2023-08-30T05:22:18;129660.0;;;190.6;100.0
60719;BME280;46567;51.660;5.824;2023-08-30T05:27:18;129620.0;;;190.6;100.0
60719;BME280;46567;51.660;5.824;2023-08-30T05:32:18;129600.0;;;190.6;100.0
60719;BME280;46567;51.660;5.824;2023-08-30T05:37:18;129580.0;;;190.6;100.0
60719;BME280;46567;51.660;5.824;2023-08-30T05:42:18;129550.0;;;190.6;100.0
60719;BME280;46567;51.660;5.824;2023-08-30T05:47:20;129540.0;;;190.6;100.0
60719;BME280;46567;51.660;5.824;2023-08-30T05:52:18;129520.0;;;190.6;100.0
60719;BME280;46567;51.660;5.824;2023-08-30T05:57:18;129490.0;;;190.6;100.0
60719;BME280;46567;51.660;5.824;2023-08-30T06:02:18;129470.0;;;190.6;100.0
60719;BME280;46567;51.660;5.824;2023-08-30T06:07:18;129430.0;;;190.6;100.0
60719;BME280;46567;51.660;5.824;2023-08-30T06:12:18;129400.0;;;190.6;100.0
60719;BME280;46567;51.660;5.824;2023-08-30T06:17:19;129370.0;;;190.6;100.0
60719;BME280;46567;51.660;5.824;2023-08-30T06:22:18;129340.0;;;190.6;100.0
60719;BME280;46567;51.660;5.824;2023-08-30T06:27:18;129310.0;;;190.6;100.0
60719;BME280;46567;51.660;5.824;2023-08-30T06:32:18;129290.0;;;190.6;100.0
60719;BME280;46567;51.660;5.824;2023-08-30T06:37:18;129270.0;;;190.6;100.0
60719;BME280;46567;51.660;5.824;2023-08-30T06:42:18;129240.0;;;190.6;100.0
60719;BME280;46567;51.660;5.824;2023-08-30T06:47:18;129210.0;;;190.6;100.0
60719;BME280;46567;51.660;5.824;2023-08-30T06:52:18;129190.0;;;190.6;100.0
60719;BME280;46567;51.660;5.824;2023-08-30T06:57:18;129170.0;;;190.6;99.5
60719;BME280;46567;51.660;5.824;2023-08-30T07:02:18;129140.0;;;190.6;99.0
60719;BME280;46567;51.660;5.824;2023-08-30T07:07:18;129130.0;;;190.6;99.5
60719;BME280;46567;51.660;5.824;2023-08-30T07:12:18;129110.0;;;190.6;99.0
60719;BME280;46567;51.660;5.824;2023-08-30T07:17:18;129120.0;;;190.6;99.0
60719;BME280;46567;51.660;5.824;2023-08-30T07:22:18;129120.0;;;190.6;99.0
60719;BME280;46567;51.660;5.824;2023-08-30T07:27:18;129130.0;;;190.6;99.0
60719;BME280;46567;51.660;5.824;2023-08-30T07:32:18;129130.0;;;190.6;99.5
60719;BME280;46567;51.660;5.824;2023-08-30T07:37:20;129140.0;;;190.6;99.0
60719;BME280;46567;51.660;5.824;2023-08-30T07:42:18;129130.0;;;190.6;100.0
60719;BME280;46567;51.660;5.824;2023-08-30T07:47:18;129140.0;;;190.6;100.0
60719;BME280;46567;51.660;5.824;2023-08-30T07:52:18;129140.0;;;190.6;100.0
60719;BME280;46567;51.660;5.824;2023-08-30T07:57:19;129140.0;;;190.6;100.0
60719;BME280;46567;51.660;5.824;2023-08-30T08:02:18;129150.0;;;190.6;100.0
60719;BME280;46567;51.660;5.824;2023-08-30T08:07:18;129150.0;;;190.6;100.0
60719;BME280;46567;51.660;5.824;2023-08-30T08:12:18;129150.0;;;190.6;100.0
60719;BME280;46567;51.660;5.824;2023-08-30T08:17:18;129150.0;;;190.6;100.0
60719;BME280;46567;51.660;5.824;2023-08-30T08:22:18;129130.0;;;190.6;100.0
60719;BME280;46567;51.660;5.824;2023-08-30T08:27:18;129130.0;;;190.6;100.0
60719;BME280;46567;51.660;5.824;2023-08-30T08:32:18;129130.0;;;190.6;100.0
60719;BME280;46567;51.660;5.824;2023-08-30T08:37:18;129120.0;;;190.6;100.0
60719;BME280;46567;51.660;5.824;2023-08-30T08:42:19;129120.0;;;190.6;100.0
60719;BME280;46567;51.660;5.824;2023-08-30T08:47:19;129120.0;;;190.6;100.0
60719;BME280;46567;51.660;5.824;2023-08-30T08:52:18;129110.0;;;190.6;100.0
60719;BME280;46567;51.660;5.824;2023-08-30T08:57:19;129100.0;;;190.6;100.0
60719;BME280;46567;51.660;5.824;2023-08-30T09:02:19;129110.0;;;190.6;100.0
60719;BME280;46567;51.660;5.824;2023-08-30T09:07:19;129100.0;;;190.6;100.0
60719;BME280;46567;51.660;5.824;2023-08-30T09:12:18;129090.0;;;190.6;100.0
60719;BME280;46567;51.660;5.824;2023-08-30T09:17:19;129090.0;;;190.6;100.0
60719;BME280;46567;51.660;5.824;2023-08-30T09:22:18;129070.0;;;190.6;100.0
60719;BME280;46567;51.660;5.824;2023-08-30T09:27:18;129060.0;;;190.6;100.0
60719;BME280;46567;51.660;5.824;2023-08-30T09:32:20;129060.0;;;190.6;100.0
60719;BME280;46567;51.660;5.824;2023-08-30T09:37:19;129060.0;;;190.6;100.0
60719;BME280;46567;51.660;5.824;2023-08-30T09:42:18;129060.0;;;190.6;100.0
60719;BME280;46567;51.660;5.824;2023-08-30T09:47:18;129010.0;;;190.6;100.0
60719;BME280;46567;51.660;5.824;2023-08-30T09:52:20;128970.0;;;190.6;100.0
60719;BME280;46567;51.660;5.824;2023-08-30T09:57:19;128930.0;;;190.6;100.0
60719;BME280;46567;51.660;5.824;2023-08-30T10:02:19;128870.0;;;190.6;100.0
60719;BME280;46567;51.660;5.824;2023-08-30T10:07:20;128830.0;;;190.6;100.0
60719;BME280;46567;51.660;5.824;2023-08-30T10:12:20;128820.0;;;190.6;100.0
60719;BME280;46567;51.660;5.824;2023-08-30T10:17:27;128820.0;;;190.6;100.0
60719;BME280;46567;51.660;5.824;2023-08-30T10:22:19;128830.0;;;190.6;100.0
60719;BME280;46567;51.660;5.824;2023-08-30T10:27:19;128800.0;;;190.6;100.0
60719;BME280;46567;51.660;5.824;2023-08-30T10:32:20;128750.0;;;190.6;100.0
60719;BME280;46567;51.660;5.824;2023-08-30T10:37:27;128700.0;;;190.6;100.0
60719;BME280;46567;51.660;5.824;2023-08-30T10:42:23;128600.0;;;190.6;100.0
60719;BME280;46567;51.660;5.824;2023-08-30T10:47:19;128500.0;;;190.6;100.0
60719;BME280;46567;51.660;5.824;2023-08-30T10:52:18;128410.0;;;190.6;100.0
60719;BME280;46567;51.660;5.824;2023-08-30T10:57:20;128360.0;;;190.6;100.0
60719;BME280;46567;51.660;5.824;2023-08-30T11:02:18;128290.0;;;190.6;100.0
60719;BME280;46567;51.660;5.824;2023-08-30T11:07:19;128210.0;;;190.6;100.0
60719;BME280;46567;51.660;5.824;2023-08-30T11:12:19;128150.0;;;190.6;100.0
60719;BME280;46567;51.660;5.824;2023-08-30T11:17:18;128090.0;;;190.6;100.0
60719;BME280;46567;51.660;5.824;2023-08-30T11:22:18;128040.0;;;190.6;99.5
60719;BME280;46567;51.660;5.824;2023-08-30T11:27:19;128000.0;;;190.6;97.0
60719;BME280;46567;51.660;5.824;2023-08-30T11:32:20;128030.0;;;190.6;95.0
60719;BME280;46567;51.660;5.824;2023-08-30T11:37:19;128080.0;;;190.6;95.0
60719;BME280;46567;51.660;5.824;2023-08-30T11:42:19;128160.0;;;190.6;95.0
60719;BME280;46567;51.660;5.824;2023-08-30T11:47:18;128200.0;;;190.6;95.0
60719;BME280;46567;51.660;5.824;2023-08-30T11:52:19;128250.0;;;190.6;94.0
60719;BME280;46567;51.660;5.824;2023-08-30T11:57:19;128290.0;;;190.6;93.5
60719;BME280;46567;51.660;5.824;2023-08-30T12:02:18;128280.0;;;190.6;94.5
60719;BME280;46567;51.660;5.824;2023-08-30T12:07:22;128220.0;;;190.6;94.0
60719;BME280;46567;51.660;5.824;2023-08-30T12:12:18;128180.0;;;190.6;93.0
60719;BME280;46567;51.660;5.824;2023-08-30T12:17:20;128130.0;;;190.6;93.0
60719;BME280;46567;51.660;5.824;2023-08-30T12:22:18;128060.0;;;190.6;91.0
60719;BME280;46567;51.660;5.824;2023-08-30T12:27:18;128050.0;;;190.6;88.5
60719;BME280;46567;51.660;5.824;2023-08-30T12:32:18;128070.0;;;190.6;86.5
60719;BME280;46567;51.660;5.824;2023-08-30T12:37:19;128050.0;;;190.6;87.5
60719;BME280;46567;51.660;5.824;2023-08-30T12:42:18;128020.0;;;190.6;85.5
60719;BME280;46567;51.660;5.824;2023-08-30T12:47:19;128010.0;;;190.6;83.5
60719;BME280;46567;51.660;5.824;2023-08-30T12:52:19;128020.0;;;190.6;81.0
60719;BME280;46567;51.660;5.824;2023-08-30T12:57:19;128000.0;;;190.6;82.0
60719;BME280;46567;51.660;5.824;2023-08-30T13:02:18;127970.0;;;190.6;80.5
60719;BME280;46567;51.660;5.824;2023-08-30T13:07:19;127950.0;;;190.6;79.5
60719;BME280;46567;51.660;5.824;2023-08-30T13:12:19;127910.0;;;190.6;77.0
60719;BME280;46567;51.660;5.824;2023-08-30T13:17:18;127930.0;;;190.6;76.0
60719;BME280;46567;51.660;5.824;2023-08-30T13:22:19;127920.0;;;190.6;75.0
60719;BME280;46567;51.660;5.824;2023-08-30T13:27:19;127960.0;;;190.6;74.0
60719;BME280;46567;51.660;5.824;2023-08-30T13:32:19;127980.0;;;190.6;73.5
60719;BME280;46567;51.660;5.824;2023-08-30T13:37:18;128010.0;;;190.6;72.0
60719;BME280;46567;51.660;5.824;2023-08-30T13:42:19;127980.0;;;190.6;73.0
60719;BME280;46567;51.660;5.824;2023-08-30T13:47:19;127910.0;;;190.6;72.5
60719;BME280;46567;51.660;5.824;2023-08-30T13:52:19;127870.0;;;190.6;71.0
60719;BME280;46567;51.660;5.824;2023-08-30T13:57:19;127850.0;;;190.6;70.0
60719;BME280;46567;51.660;5.824;2023-08-30T14:02:19;127840.0;;;190.6;68.0
60719;BME280;46567;51.660;5.824;2023-08-30T14:07:19;127830.0;;;190.6;66.5
60719;BME280;46567;51.660;5.824;2023-08-30T14:12:18;127850.0;;;190.6;66.0
60719;BME280;46567;51.660;5.824;2023-08-30T14:17:19;127850.0;;;190.6;65.5
60719;BME280;46567;51.660;5.824;2023-08-30T14:22:19;127800.0;;;190.6;65.5
60719;BME280;46567;51.660;5.824;2023-08-30T14:27:18;127760.0;;;190.6;61.5
60719;BME280;46567;51.660;5.824;2023-08-30T14:32:19;127750.0;;;190.6;63.5
60719;BME280;46567;51.660;5.824;2023-08-30T14:37:18;127720.0;;;190.6;59.5
60719;BME280;46567;51.660;5.824;2023-08-30T14:42:19;127710.0;;;190.6;60.5
60719;BME280;46567;51.660;5.824;2023-08-30T14:47:19;127690.0;;;190.6;60.0
60719;BME280;46567;51.660;5.824;2023-08-30T14:52:19;127670.0;;;190.6;58.0
60719;BME280;46567;51.660;5.824;2023-08-30T14:57:19;127720.0;;;190.6;57.5
60719;BME280;46567;51.660;5.824;2023-08-30T15:02:18;127800.0;;;190.6;58.0
60719;BME280;46567;51.660;5.824;2023-08-30T15:07:19;127880.0;;;190.6;58.5
60719;BME280;46567;51.660;5.824;2023-08-30T15:12:19;127960.0;;;190.6;60.0
60719;BME280;46567;51.660;5.824;2023-08-30T15:17:19;128040.0;;;190.6;62.0
60719;BME280;46567;51.660;5.824;2023-08-30T15:22:19;128090.0;;;190.6;63.0
60719;BME280;46567;51.660;5.824;2023-08-30T15:27:19;128120.0;;;190.6;63.5
60719;BME280;46567;51.660;5.824;2023-08-30T15:32:19;128140.0;;;190.6;65.0
60719;BME280;46567;51.660;5.824;2023-08-30T15:37:19;128190.0;;;190.6;64.5
60719;BME280;46567;51.660;5.824;2023-08-30T15:42:19;128250.0;;;190.6;65.0
60719;BME280;46567;51.660;5.824;2023-08-30T15:47:19;128280.0;;;190.6;66.5
60719;BME280;46567;51.660;5.824;2023-08-30T15:52:19;128290.0;;;190.6;66.5
60719;BME280;46567;51.660;5.824;2023-08-30T15:57:19;128330.0;;;190.6;67.0
60719;BME280;46567;51.660;5.824;2023-08-30T16:02:19;128380.0;;;190.6;68.0
60719;BME280;46567;51.660;5.824;2023-08-30T16:07:19;128410.0;;;190.6;69.5
60719;BME280;46567;51.660;5.824;2023-08-30T16:12:19;128470.0;;;190.6;70.5
60719;BME280;46567;51.660;5.824;2023-08-30T16:17:19;128510.0;;;190.6;70.0
60719;BME280;46567;51.660;5.824;2023-08-30T16:22:19;128490.0;;;190.6;71.0
60719;BME280;46567;51.660;5.824;2023-08-30T16:27:19;128460.0;;;190.6;70.0
60719;BME280;46567;51.660;5.824;2023-08-30T16:32:19;128430.0;;;190.6;69.0
60719;BME280;46567;51.660;5.824;2023-08-30T16:37:19;128400.0;;;190.6;68.0
60719;BME280;46567;51.660;5.824;2023-08-30T16:42:19;128390.0;;;190.6;68.0
60719;BME280;46567;51.660;5.824;2023-08-30T16:47:19;128430.0;;;190.6;67.0
60719;BME280;46567;51.660;5.824;2023-08-30T16:52:19;128440.0;;;190.6;68.0
60719;BME280;46567;51.660;5.824;2023-08-30T16:57:19;128440.0;;;190.6;68.5
60719;BME280;46567;51.660;5.824;2023-08-30T17:02:19;128440.0;;;190.6;68.0
60719;BME280;46567;51.660;5.824;2023-08-30T17:07:19;128430.0;;;190.6;67.5
60719;BME280;46567;51.660;5.824;2023-08-30T17:12:19;128470.0;;;190.6;67.0
60719;BME280;46567;51.660;5.824;2023-08-30T17:17:19;128480.0;;;190.6;68.0
60719;BME280;46567;51.660;5.824;2023-08-30T17:22:19;128470.0;;;190.6;68.0
60719;BME280;46567;51.660;5.824;2023-08-30T17:27:19;128450.0;;;190.6;67.5
60719;BME280;46567;51.660;5.824;2023-08-30T17:32:19;128460.0;;;190.6;68.0
60719;BME280;46567;51.660;5.824;2023-08-30T17:37:19;128490.0;;;190.6;68.5
60719;BME280;46567;51.660;5.824;2023-08-30T17:42:19;128540.0;;;190.6;69.0
60719;BME280;46567;51.660;5.824;2023-08-30T17:47:19;128590.0;;;190.6;70.5
60719;BME280;46567;51.660;5.824;2023-08-30T17:52:19;128620.0;;;190.6;71.5
60719;BME280;46567;51.660;5.824;2023-08-30T17:57:19;128650.0;;;190.6;72.0
60719;BME280;46567;51.660;5.824;2023-08-30T18:02:19;128700.0;;;190.6;73.0
60719;BME280;46567;51.660;5.824;2023-08-30T18:07:19;128720.0;;;190.6;74.0
60719;BME280;46567;51.660;5.824;2023-08-30T18:12:19;128770.0;;;190.6;74.5
60719;BME280;46567;51.660;5.824;2023-08-30T18:17:19;128800.0;;;190.6;75.0
60719;BME280;46567;51.660;5.824;2023-08-30T18:22:19;128840.0;;;190.6;75.5
60719;BME280;46567;51.660;5.824;2023-08-30T18:27:19;128880.0;;;190.6;76.0
60719;BME280;46567;51.660;5.824;2023-08-30T18:32:19;128920.0;;;190.6;76.5
60719;BME280;46567;51.660;5.824;2023-08-30T18:37:19;128960.0;;;190.6;77.0
60719;BME280;46567;51.660;5.824;2023-08-30T18:42:19;128990.0;;;190.6;77.0
60719;BME280;46567;51.660;5.824;2023-08-30T18:47:19;129030.0;;;190.6;77.5
60719;BME280;46567;51.660;5.824;2023-08-30T18:52:19;129060.0;;;190.6;78.0
60719;BME280;46567;51.660;5.824;2023-08-30T18:57:19;129090.0;;;190.6;78.5
60719;BME280;46567;51.660;5.824;2023-08-30T19:02:19;129120.0;;;190.6;78.5
60719;BME280;46567;51.660;5.824;2023-08-30T19:07:19;129160.0;;;190.6;78.5
60719;BME280;46567;51.660;5.824;2023-08-30T19:12:19;129200.0;;;190.6;79.0
60719;BME280;46567;51.660;5.824;2023-08-30T19:17:19;129220.0;;;190.6;79.5
60719;BME280;46567;51.660;5.824;2023-08-30T19:22:19;129250.0;;;190.6;79.5
60719;BME280;46567;51.660;5.824;2023-08-30T19:27:19;129260.0;;;190.6;80.0
60719;BME280;46567;51.660;5.824;2023-08-30T19:32:19;129270.0;;;190.6;80.5
60719;BME280;46567;51.660;5.824;2023-08-30T19:37:19;129280.0;;;190.6;81.0
60719;BME280;46567;51.660;5.824;2023-08-30T19:42:19;129290.0;;;190.6;81.5
60719;BME280;46567;51.660;5.824;2023-08-30T19:47:19;129310.0;;;190.6;82.0
60719;BME280;46567;51.660;5.824;2023-08-30T19:52:19;129330.0;;;190.6;82.5
60719;BME280;46567;51.660;5.824;2023-08-30T19:57:19;129330.0;;;190.6;82.5
60719;BME280;46567;51.660;5.824;2023-08-30T20:02:19;129330.0;;;190.6;83.0
60719;BME280;46567;51.660;5.824;2023-08-30T20:07:19;129330.0;;;190.6;83.0
60719;BME280;46567;51.660;5.824;2023-08-30T20:12:19;129340.0;;;190.6;83.0
60719;BME280;46567;51.660;5.824;2023-08-30T20:17:19;129340.0;;;190.6;83.5
60719;BME280;46567;51.660;5.824;2023-08-30T20:22:19;129330.0;;;190.6;83.5
60719;BME280;46567;51.660;5.824;2023-08-30T20:27:19;129340.0;;;190.6;83.5
60719;BME280;46567;51.660;5.824;2023-08-30T20:32:19;129340.0;;;190.6;84.0
60719;BME280;46567;51.660;5.824;2023-08-30T20:37:19;129350.0;;;190.6;84.0
60719;BME280;46567;51.660;5.824;2023-08-30T20:42:19;129350.0;;;190.6;84.0
60719;BME280;46567;51.660;5.824;2023-08-30T20:47:19;129360.0;;;190.6;84.5
60719;BME280;46567;51.660;5.824;2023-08-30T20:52:19;129370.0;;;190.6;84.5
60719;BME280;46567;51.660;5.824;2023-08-30T20:57:19;129370.0;;;190.6;85.0
60719;BME280;46567;51.660;5.824;2023-08-30T21:02:19;129380.0;;;190.6;85.0
60719;BME280;46567;51.660;5.824;2023-08-30T21:07:19;129390.0;;;190.6;85.5
60719;BME280;46567;51.660;5.824;2023-08-30T21:12:19;129410.0;;;190.6;85.5
60719;BME280;46567;51.660;5.824;2023-08-30T21:17:19;129420.0;;;190.6;85.5
60719;BME280;46567;51.660;5.824;2023-08-30T21:22:19;129450.0;;;190.6;85.5
60719;BME280;46567;51.660;5.824;2023-08-30T21:27:19;129470.0;;;190.6;86.0
60719;BME280;46567;51.660;5.824;2023-08-30T21:32:19;129490.0;;;190.6;86.5
60719;BME280;46567;51.660;5.824;2023-08-30T21:37:19;129510.0;;;190.6;86.5
60719;BME280;46567;51.660;5.824;2023-08-30T21:42:19;129540.0;;;190.6;87.0
60719;BME280;46567;51.660;5.824;2023-08-30T21:47:19;129550.0;;;190.6;87.5
60719;BME280;46567;51.660;5.824;2023-08-30T21:52:19;129560.0;;;190.6;87.5
60719;BME280;46567;51.660;5.824;2023-08-30T21:57:19;129600.0;;;190.6;88.0
60719;BME280;46567;51.660;5.824;2023-08-30T22:02:19;129620.0;;;190.6;88.5
60719;BME280;46567;51.660;5.824;2023-08-30T22:07:19;129640.0;;;190.6;88.5
60719;BME280;46567;51.660;5.824;2023-08-30T22:12:19;129660.0;;;190.6;88.5
60719;BME280;46567;51.660;5.824;2023-08-30T22:17:19;129670.0;;;190.6;89.0
60719;BME280;46567;51.660;5.824;2023-08-30T22:22:19;129690.0;;;190.6;89.0
60719;BME280;46567;51.660;5.824;2023-08-30T22:27:19;129720.0;;;190.6;89.0
60719;BME280;46567;51.660;5.824;2023-08-30T22:32:19;129730.0;;;190.6;89.5
60719;BME280;46567;51.660;5.824;2023-08-30T22:37:19;129750.0;;;190.6;89.5
60719;BME280;46567;51.660;5.824;2023-08-30T22:42:19;129750.0;;;190.6;90.0
60719;BME280;46567;51.660;5.824;2023-08-30T22:47:19;129780.0;;;190.6;90.0
60719;BME280;46567;51.660;5.824;2023-08-30T22:52:19;129810.0;;;190.6;90.5
60719;BME280;46567;51.660;5.824;2023-08-30T22:57:19;129810.0;;;190.6;91.0
60719;BME280;46567;51.660;5.824;2023-08-30T23:02:19;129820.0;;;190.6;91.0
60719;BME280;46567;51.660;5.824;2023-08-30T23:07:19;129850.0;;;190.6;91.0
60719;BME280;46567;51.660;5.824;2023-08-30T23:12:19;129860.0;;;190.6;91.5
60719;BME280;46567;51.660;5.824;2023-08-30T23:17:19;129880.0;;;190.6;92.0
60719;BME280;46567;51.660;5.824;2023-08-30T23:22:19;129900.0;;;190.6;92.5
60719;BME280;46567;51.660;5.824;2023-08-30T23:27:19;129920.0;;;190.6;92.5
60719;BME280;46567;51.660;5.824;2023-08-30T23:32:19;129930.0;;;190.6;93.0
60719;BME280;46567;51.660;5.824;2023-08-30T23:37:19;129950.0;;;190.6;93.5
60719;BME280;46567;51.660;5.824;2023-08-30T23:42:19;129970.0;;;190.6;93.5
60719;BME280;46567;51.660;5.824;2023-08-30T23:47:19;129970.0;;;190.6;94.0
60719;BME280;46567;51.660;5.824;2023-08-30T23:52:19;129990.0;;;190.6;95.0
60719;BME280;46567;51.660;5.824;2023-08-30T23:57:19;129980.0;;;190.6;95.0
